sensor_id;sensor_type;location;lat;lon;timestamp;P1;durP1;ratioP1;P2;durP2;ratioP2
75320;SDS011;63920;52.130;5.584;2022-12-24T00:01:56;31.13;;;6.18;;
75320;SDS011;63920;52.130;5.584;2022-12-24T00:04:22;37.03;;;6.80;;
75320;SDS011;63920;52.130;5.584;2022-12-24T00:06:47;35.17;;;5.60;;
75320;SDS011;63920;52.130;5.584;2022-12-24T00:09:13;36.53;;;6.63;;
75320;SDS011;63920;52.130;5.584;2022-12-24T00:11:38;39.47;;;7.22;;
75320;SDS011;63920;52.130;5.584;2022-12-24T00:14:04;36.60;;;7.80;;
75320;SDS011;63920;52.130;5.584;2022-12-24T00:16:29;31.10;;;6.70;;
75320;SDS011;63920;52.130;5.584;2022-12-24T00:18:55;46.15;;;7.15;;
75320;SDS011;63920;52.130;5.584;2022-12-24T00:21:21;44.72;;;7.10;;
75320;SDS011;63920;52.130;5.584;2022-12-24T00:23:46;45.10;;;6.53;;
75320;SDS011;63920;52.130;5.584;2022-12-24T00:26:12;36.95;;;6.63;;
75320;SDS011;63920;52.130;5.584;2022-12-24T00:28:38;31.30;;;5.85;;
75320;SDS011;63920;52.130;5.584;2022-12-24T00:31:12;33.88;;;6.82;;
75320;SDS011;63920;52.130;5.584;2022-12-24T00:33:39;42.83;;;8.02;;
75320;SDS011;63920;52.130;5.584;2022-12-24T00:36:10;29.33;;;5.97;;
75320;SDS011;63920;52.130;5.584;2022-12-24T00:38:36;39.03;;;6.78;;
75320;SDS011;63920;52.130;5.584;2022-12-24T00:41:03;39.13;;;7.15;;
75320;SDS011;63920;52.130;5.584;2022-12-24T00:43:30;35.45;;;6.93;;
75320;SDS011;63920;52.130;5.584;2022-12-24T00:45:56;33.67;;;6.85;;
75320;SDS011;63920;52.130;5.584;2022-12-24T00:48:23;36.95;;;6.40;;
75320;SDS011;63920;52.130;5.584;2022-12-24T00:50:50;39.78;;;7.20;;
75320;SDS011;63920;52.130;5.584;2022-12-24T00:53:16;44.38;;;6.60;;
75320;SDS011;63920;52.130;5.584;2022-12-24T00:55:44;29.48;;;6.25;;
75320;SDS011;63920;52.130;5.584;2022-12-24T00:58:10;40.75;;;6.82;;
75320;SDS011;63920;52.130;5.584;2022-12-24T01:00:35;43.67;;;6.25;;
75320;SDS011;63920;52.130;5.584;2022-12-24T01:03:01;39.42;;;8.25;;
75320;SDS011;63920;52.130;5.584;2022-12-24T01:05:26;32.92;;;5.43;;
75320;SDS011;63920;52.130;5.584;2022-12-24T01:07:52;45.90;;;7.35;;
75320;SDS011;63920;52.130;5.584;2022-12-24T01:10:18;30.42;;;5.50;;
75320;SDS011;63920;52.130;5.584;2022-12-24T01:12:46;43.97;;;6.70;;
75320;SDS011;63920;52.130;5.584;2022-12-24T01:15:12;37.25;;;6.32;;
75320;SDS011;63920;52.130;5.584;2022-12-24T01:17:39;37.95;;;7.22;;
75320;SDS011;63920;52.130;5.584;2022-12-24T01:20:05;42.30;;;7.50;;
75320;SDS011;63920;52.130;5.584;2022-12-24T01:22:32;42.33;;;7.25;;
75320;SDS011;63920;52.130;5.584;2022-12-24T01:24:58;45.17;;;6.80;;
75320;SDS011;63920;52.130;5.584;2022-12-24T01:27:23;40.47;;;7.75;;
75320;SDS011;63920;52.130;5.584;2022-12-24T01:29:49;50.85;;;6.93;;
75320;SDS011;63920;52.130;5.584;2022-12-24T01:32:15;40.33;;;6.85;;
75320;SDS011;63920;52.130;5.584;2022-12-24T01:34:41;46.10;;;7.03;;
75320;SDS011;63920;52.130;5.584;2022-12-24T01:37:06;36.58;;;6.38;;
75320;SDS011;63920;52.130;5.584;2022-12-24T01:39:32;38.38;;;6.38;;
75320;SDS011;63920;52.130;5.584;2022-12-24T01:41:57;40.78;;;7.75;;
75320;SDS011;63920;52.130;5.584;2022-12-24T01:44:42;44.38;;;7.78;;
75320;SDS011;63920;52.130;5.584;2022-12-24T01:49:41;47.83;;;7.18;;
75320;SDS011;63920;52.130;5.584;2022-12-24T01:52:15;44.50;;;7.55;;
75320;SDS011;63920;52.130;5.584;2022-12-24T01:54:46;39.65;;;7.18;;
75320;SDS011;63920;52.130;5.584;2022-12-24T01:57:17;44.30;;;8.13;;
75320;SDS011;63920;52.130;5.584;2022-12-24T01:59:50;47.15;;;7.50;;
75320;SDS011;63920;52.130;5.584;2022-12-24T02:02:19;46.88;;;7.72;;
75320;SDS011;63920;52.130;5.584;2022-12-24T02:04:56;42.65;;;7.47;;
75320;SDS011;63920;52.130;5.584;2022-12-24T02:07:27;50.92;;;7.80;;
75320;SDS011;63920;52.130;5.584;2022-12-24T02:09:55;43.15;;;8.70;;
75320;SDS011;63920;52.130;5.584;2022-12-24T02:12:21;48.55;;;7.25;;
75320;SDS011;63920;52.130;5.584;2022-12-24T02:14:48;49.70;;;8.07;;
75320;SDS011;63920;52.130;5.584;2022-12-24T02:30:39;39.08;;;6.78;;
75320;SDS011;63920;52.130;5.584;2022-12-24T02:33:14;46.22;;;7.78;;
75320;SDS011;63920;52.130;5.584;2022-12-24T02:35:55;39.35;;;6.15;;
75320;SDS011;63920;52.130;5.584;2022-12-24T02:38:47;37.80;;;7.68;;
75320;SDS011;63920;52.130;5.584;2022-12-24T02:41:26;44.33;;;7.20;;
75320;SDS011;63920;52.130;5.584;2022-12-24T02:44:19;39.95;;;7.03;;
75320;SDS011;63920;52.130;5.584;2022-12-24T02:46:48;35.83;;;6.82;;
75320;SDS011;63920;52.130;5.584;2022-12-24T02:49:14;54.58;;;8.20;;
75320;SDS011;63920;52.130;5.584;2022-12-24T02:51:40;48.22;;;8.05;;
75320;SDS011;63920;52.130;5.584;2022-12-24T02:54:06;39.60;;;7.78;;
75320;SDS011;63920;52.130;5.584;2022-12-24T02:56:35;34.15;;;6.35;;
75320;SDS011;63920;52.130;5.584;2022-12-24T03:05:03;41.90;;;7.38;;
75320;SDS011;63920;52.130;5.584;2022-12-24T03:07:42;43.20;;;6.20;;
75320;SDS011;63920;52.130;5.584;2022-12-24T03:10:25;34.55;;;6.63;;
75320;SDS011;63920;52.130;5.584;2022-12-24T03:13:07;27.58;;;6.18;;
75320;SDS011;63920;52.130;5.584;2022-12-24T03:15:37;43.90;;;6.60;;
75320;SDS011;63920;52.130;5.584;2022-12-24T03:18:04;41.58;;;6.50;;
75320;SDS011;63920;52.130;5.584;2022-12-24T03:20:39;28.33;;;5.68;;
75320;SDS011;63920;52.130;5.584;2022-12-24T03:23:07;45.35;;;6.10;;
75320;SDS011;63920;52.130;5.584;2022-12-24T03:25:34;35.38;;;7.30;;
75320;SDS011;63920;52.130;5.584;2022-12-24T03:28:03;37.42;;;6.93;;
75320;SDS011;63920;52.130;5.584;2022-12-24T03:30:30;34.03;;;6.22;;
75320;SDS011;63920;52.130;5.584;2022-12-24T03:32:56;43.28;;;6.50;;
75320;SDS011;63920;52.130;5.584;2022-12-24T03:35:21;39.72;;;6.63;;
75320;SDS011;63920;52.130;5.584;2022-12-24T03:37:47;52.15;;;7.85;;
75320;SDS011;63920;52.130;5.584;2022-12-24T03:40:12;39.10;;;6.43;;
75320;SDS011;63920;52.130;5.584;2022-12-24T03:42:38;50.17;;;7.60;;
75320;SDS011;63920;52.130;5.584;2022-12-24T03:45:04;40.63;;;6.57;;
75320;SDS011;63920;52.130;5.584;2022-12-24T03:47:30;40.35;;;7.30;;
75320;SDS011;63920;52.130;5.584;2022-12-24T03:49:55;50.85;;;7.47;;
75320;SDS011;63920;52.130;5.584;2022-12-24T03:52:21;49.58;;;6.85;;
75320;SDS011;63920;52.130;5.584;2022-12-24T03:54:46;43.63;;;7.82;;
75320;SDS011;63920;52.130;5.584;2022-12-24T03:57:12;50.45;;;8.20;;
75320;SDS011;63920;52.130;5.584;2022-12-24T03:59:37;45.65;;;7.50;;
75320;SDS011;63920;52.130;5.584;2022-12-24T04:02:03;50.08;;;8.10;;
75320;SDS011;63920;52.130;5.584;2022-12-24T04:04:28;49.45;;;9.02;;
75320;SDS011;63920;52.130;5.584;2022-12-24T04:06:54;43.25;;;7.15;;
75320;SDS011;63920;52.130;5.584;2022-12-24T04:09:19;49.35;;;6.80;;
75320;SDS011;63920;52.130;5.584;2022-12-24T04:11:45;48.70;;;7.45;;
75320;SDS011;63920;52.130;5.584;2022-12-24T04:14:11;52.10;;;7.25;;
75320;SDS011;63920;52.130;5.584;2022-12-24T04:16:36;47.38;;;6.60;;
75320;SDS011;63920;52.130;5.584;2022-12-24T04:19:02;40.08;;;6.88;;
75320;SDS011;63920;52.130;5.584;2022-12-24T04:21:27;40.17;;;7.30;;
75320;SDS011;63920;52.130;5.584;2022-12-24T04:23:53;42.38;;;7.07;;
75320;SDS011;63920;52.130;5.584;2022-12-24T04:26:18;54.45;;;8.50;;
75320;SDS011;63920;52.130;5.584;2022-12-24T04:28:44;53.80;;;7.93;;
75320;SDS011;63920;52.130;5.584;2022-12-24T04:31:14;43.88;;;6.85;;
75320;SDS011;63920;52.130;5.584;2022-12-24T04:33:40;58.38;;;8.85;;
75320;SDS011;63920;52.130;5.584;2022-12-24T04:36:06;60.83;;;8.48;;
75320;SDS011;63920;52.130;5.584;2022-12-24T04:38:34;45.42;;;7.80;;
75320;SDS011;63920;52.130;5.584;2022-12-24T04:41:00;52.03;;;8.40;;
75320;SDS011;63920;52.130;5.584;2022-12-24T04:43:37;54.28;;;8.27;;
75320;SDS011;63920;52.130;5.584;2022-12-24T04:46:03;48.80;;;8.30;;
75320;SDS011;63920;52.130;5.584;2022-12-24T04:48:38;54.95;;;7.45;;
75320;SDS011;63920;52.130;5.584;2022-12-24T04:51:05;45.35;;;8.00;;
75320;SDS011;63920;52.130;5.584;2022-12-24T04:53:32;60.75;;;9.45;;
75320;SDS011;63920;52.130;5.584;2022-12-24T04:55:58;50.80;;;8.25;;
75320;SDS011;63920;52.130;5.584;2022-12-24T04:58:24;41.78;;;8.73;;
75320;SDS011;63920;52.130;5.584;2022-12-24T05:00:49;46.45;;;8.48;;
75320;SDS011;63920;52.130;5.584;2022-12-24T05:03:15;45.80;;;8.77;;
75320;SDS011;63920;52.130;5.584;2022-12-24T05:05:41;60.45;;;9.70;;
75320;SDS011;63920;52.130;5.584;2022-12-24T05:08:06;47.15;;;8.60;;
75320;SDS011;63920;52.130;5.584;2022-12-24T05:10:32;42.95;;;7.57;;
75320;SDS011;63920;52.130;5.584;2022-12-24T05:12:57;53.80;;;7.95;;
75320;SDS011;63920;52.130;5.584;2022-12-24T05:15:23;53.78;;;8.10;;
75320;SDS011;63920;52.130;5.584;2022-12-24T05:17:49;39.13;;;6.75;;
75320;SDS011;63920;52.130;5.584;2022-12-24T05:20:15;48.33;;;8.45;;
75320;SDS011;63920;52.130;5.584;2022-12-24T05:22:41;52.58;;;8.63;;
75320;SDS011;63920;52.130;5.584;2022-12-24T05:25:27;43.22;;;6.00;;
75320;SDS011;63920;52.130;5.584;2022-12-24T05:28:18;36.15;;;6.90;;
75320;SDS011;63920;52.130;5.584;2022-12-24T05:30:44;48.67;;;7.18;;
75320;SDS011;63920;52.130;5.584;2022-12-24T05:33:10;36.05;;;7.20;;
75320;SDS011;63920;52.130;5.584;2022-12-24T05:35:35;57.28;;;8.20;;
75320;SDS011;63920;52.130;5.584;2022-12-24T05:38:01;46.67;;;7.70;;
75320;SDS011;63920;52.130;5.584;2022-12-24T05:40:26;47.58;;;8.13;;
75320;SDS011;63920;52.130;5.584;2022-12-24T05:42:52;43.15;;;7.18;;
75320;SDS011;63920;52.130;5.584;2022-12-24T05:45:17;39.50;;;7.22;;
75320;SDS011;63920;52.130;5.584;2022-12-24T05:47:43;51.90;;;8.27;;
75320;SDS011;63920;52.130;5.584;2022-12-24T05:50:09;30.90;;;6.32;;
75320;SDS011;63920;52.130;5.584;2022-12-24T05:52:35;39.13;;;7.97;;
75320;SDS011;63920;52.130;5.584;2022-12-24T05:55:00;45.50;;;9.30;;
75320;SDS011;63920;52.130;5.584;2022-12-24T05:57:26;59.58;;;8.57;;
75320;SDS011;63920;52.130;5.584;2022-12-24T05:59:51;33.42;;;6.95;;
75320;SDS011;63920;52.130;5.584;2022-12-24T06:02:17;44.83;;;8.43;;
75320;SDS011;63920;52.130;5.584;2022-12-24T06:04:42;51.63;;;8.65;;
75320;SDS011;63920;52.130;5.584;2022-12-24T06:07:08;44.25;;;8.25;;
75320;SDS011;63920;52.130;5.584;2022-12-24T06:09:33;63.92;;;9.35;;
75320;SDS011;63920;52.130;5.584;2022-12-24T06:11:59;55.15;;;8.98;;
75320;SDS011;63920;52.130;5.584;2022-12-24T06:14:24;62.22;;;9.27;;
75320;SDS011;63920;52.130;5.584;2022-12-24T06:16:50;65.50;;;10.13;;
75320;SDS011;63920;52.130;5.584;2022-12-24T06:19:16;64.70;;;9.68;;
75320;SDS011;63920;52.130;5.584;2022-12-24T06:21:41;56.38;;;10.18;;
75320;SDS011;63920;52.130;5.584;2022-12-24T06:24:07;43.35;;;8.43;;
75320;SDS011;63920;52.130;5.584;2022-12-24T06:26:33;54.05;;;9.05;;
75320;SDS011;63920;52.130;5.584;2022-12-24T06:28:58;58.88;;;8.95;;
75320;SDS011;63920;52.130;5.584;2022-12-24T06:31:24;58.67;;;9.80;;
75320;SDS011;63920;52.130;5.584;2022-12-24T06:33:50;62.85;;;10.57;;
75320;SDS011;63920;52.130;5.584;2022-12-24T06:36:17;67.43;;;9.13;;
75320;SDS011;63920;52.130;5.584;2022-12-24T06:38:45;62.90;;;9.70;;
75320;SDS011;63920;52.130;5.584;2022-12-24T06:41:11;51.15;;;8.98;;
75320;SDS011;63920;52.130;5.584;2022-12-24T06:43:37;63.95;;;10.30;;
75320;SDS011;63920;52.130;5.584;2022-12-24T06:46:03;64.95;;;9.77;;
75320;SDS011;63920;52.130;5.584;2022-12-24T06:48:29;73.18;;;11.82;;
75320;SDS011;63920;52.130;5.584;2022-12-24T06:50:54;66.55;;;11.13;;
75320;SDS011;63920;52.130;5.584;2022-12-24T06:53:20;63.65;;;9.80;;
75320;SDS011;63920;52.130;5.584;2022-12-24T06:55:47;66.93;;;9.57;;
75320;SDS011;63920;52.130;5.584;2022-12-24T06:58:12;65.90;;;10.00;;
75320;SDS011;63920;52.130;5.584;2022-12-24T07:00:38;63.15;;;11.20;;
75320;SDS011;63920;52.130;5.584;2022-12-24T07:03:04;64.35;;;11.02;;
75320;SDS011;63920;52.130;5.584;2022-12-24T07:05:29;62.25;;;9.68;;
75320;SDS011;63920;52.130;5.584;2022-12-24T07:07:55;58.67;;;10.10;;
75320;SDS011;63920;52.130;5.584;2022-12-24T07:10:21;58.17;;;9.98;;
75320;SDS011;63920;52.130;5.584;2022-12-24T07:12:47;63.42;;;10.43;;
75320;SDS011;63920;52.130;5.584;2022-12-24T07:15:13;62.50;;;9.20;;
75320;SDS011;63920;52.130;5.584;2022-12-24T07:17:39;60.38;;;11.43;;
75320;SDS011;63920;52.130;5.584;2022-12-24T07:20:06;61.72;;;9.48;;
75320;SDS011;63920;52.130;5.584;2022-12-24T07:22:33;59.40;;;9.05;;
75320;SDS011;63920;52.130;5.584;2022-12-24T07:24:58;63.88;;;10.40;;
75320;SDS011;63920;52.130;5.584;2022-12-24T07:27:24;58.63;;;9.23;;
75320;SDS011;63920;52.130;5.584;2022-12-24T07:29:49;58.35;;;9.63;;
75320;SDS011;63920;52.130;5.584;2022-12-24T07:32:15;62.22;;;10.70;;
75320;SDS011;63920;52.130;5.584;2022-12-24T07:34:40;60.20;;;9.45;;
75320;SDS011;63920;52.130;5.584;2022-12-24T07:37:06;62.25;;;10.02;;
75320;SDS011;63920;52.130;5.584;2022-12-24T07:39:32;48.25;;;9.10;;
75320;SDS011;63920;52.130;5.584;2022-12-24T07:41:58;51.40;;;9.55;;
75320;SDS011;63920;52.130;5.584;2022-12-24T07:44:23;63.08;;;8.88;;
75320;SDS011;63920;52.130;5.584;2022-12-24T07:46:49;50.05;;;9.35;;
75320;SDS011;63920;52.130;5.584;2022-12-24T07:49:15;54.20;;;9.23;;
75320;SDS011;63920;52.130;5.584;2022-12-24T07:51:40;63.28;;;10.23;;
75320;SDS011;63920;52.130;5.584;2022-12-24T07:54:06;58.10;;;9.88;;
75320;SDS011;63920;52.130;5.584;2022-12-24T07:56:32;67.97;;;10.27;;
75320;SDS011;63920;52.130;5.584;2022-12-24T07:58:57;50.97;;;9.30;;
75320;SDS011;63920;52.130;5.584;2022-12-24T08:01:23;55.17;;;9.32;;
75320;SDS011;63920;52.130;5.584;2022-12-24T08:03:49;51.35;;;9.35;;
75320;SDS011;63920;52.130;5.584;2022-12-24T08:06:18;66.60;;;10.55;;
75320;SDS011;63920;52.130;5.584;2022-12-24T08:08:44;56.55;;;11.38;;
75320;SDS011;63920;52.130;5.584;2022-12-24T08:11:10;60.58;;;12.32;;
75320;SDS011;63920;52.130;5.584;2022-12-24T08:13:36;61.15;;;10.60;;
75320;SDS011;63920;52.130;5.584;2022-12-24T08:16:02;42.53;;;9.23;;
75320;SDS011;63920;52.130;5.584;2022-12-24T08:18:29;52.00;;;10.15;;
75320;SDS011;63920;52.130;5.584;2022-12-24T08:20:54;51.95;;;11.23;;
75320;SDS011;63920;52.130;5.584;2022-12-24T08:23:20;57.90;;;9.45;;
75320;SDS011;63920;52.130;5.584;2022-12-24T08:25:47;43.83;;;8.48;;
75320;SDS011;63920;52.130;5.584;2022-12-24T08:28:14;52.42;;;9.40;;
75320;SDS011;63920;52.130;5.584;2022-12-24T08:30:41;50.03;;;9.10;;
75320;SDS011;63920;52.130;5.584;2022-12-24T08:33:08;52.03;;;9.60;;
75320;SDS011;63920;52.130;5.584;2022-12-24T08:35:34;47.63;;;9.25;;
75320;SDS011;63920;52.130;5.584;2022-12-24T08:38:00;48.53;;;8.95;;
75320;SDS011;63920;52.130;5.584;2022-12-24T08:40:26;66.15;;;11.55;;
75320;SDS011;63920;52.130;5.584;2022-12-24T08:42:52;48.38;;;10.95;;
75320;SDS011;63920;52.130;5.584;2022-12-24T08:45:17;62.80;;;13.23;;
75320;SDS011;63920;52.130;5.584;2022-12-24T08:47:43;57.78;;;10.05;;
75320;SDS011;63920;52.130;5.584;2022-12-24T08:50:09;52.67;;;12.02;;
75320;SDS011;63920;52.130;5.584;2022-12-24T08:52:35;64.97;;;13.73;;
75320;SDS011;63920;52.130;5.584;2022-12-24T08:55:01;57.22;;;11.77;;
75320;SDS011;63920;52.130;5.584;2022-12-24T08:57:27;57.45;;;10.27;;
75320;SDS011;63920;52.130;5.584;2022-12-24T08:59:53;62.47;;;10.68;;
75320;SDS011;63920;52.130;5.584;2022-12-24T09:02:18;68.47;;;12.50;;
75320;SDS011;63920;52.130;5.584;2022-12-24T09:04:44;64.00;;;12.63;;
75320;SDS011;63920;52.130;5.584;2022-12-24T09:07:10;65.80;;;14.40;;
75320;SDS011;63920;52.130;5.584;2022-12-24T09:09:36;69.15;;;12.35;;
75320;SDS011;63920;52.130;5.584;2022-12-24T09:12:05;56.50;;;9.18;;
75320;SDS011;63920;52.130;5.584;2022-12-24T09:14:31;59.05;;;10.75;;
75320;SDS011;63920;52.130;5.584;2022-12-24T09:16:56;56.60;;;9.65;;
75320;SDS011;63920;52.130;5.584;2022-12-24T09:19:23;62.55;;;11.15;;
75320;SDS011;63920;52.130;5.584;2022-12-24T09:21:49;67.03;;;13.25;;
75320;SDS011;63920;52.130;5.584;2022-12-24T09:24:14;55.40;;;16.80;;
75320;SDS011;63920;52.130;5.584;2022-12-24T09:26:40;62.03;;;13.48;;
75320;SDS011;63920;52.130;5.584;2022-12-24T09:29:06;54.50;;;14.02;;
75320;SDS011;63920;52.130;5.584;2022-12-24T09:31:32;51.92;;;12.50;;
75320;SDS011;63920;52.130;5.584;2022-12-24T09:33:57;51.58;;;10.63;;
75320;SDS011;63920;52.130;5.584;2022-12-24T09:36:23;55.20;;;11.35;;
75320;SDS011;63920;52.130;5.584;2022-12-24T09:38:50;55.05;;;10.93;;
75320;SDS011;63920;52.130;5.584;2022-12-24T09:43:55;70.35;;;21.95;;
75320;SDS011;63920;52.130;5.584;2022-12-24T09:46:26;57.55;;;13.50;;
75320;SDS011;63920;52.130;5.584;2022-12-24T09:48:56;54.70;;;14.60;;
75320;SDS011;63920;52.130;5.584;2022-12-24T09:51:35;55.38;;;13.20;;
75320;SDS011;63920;52.130;5.584;2022-12-24T09:54:26;62.65;;;13.38;;
75320;SDS011;63920;52.130;5.584;2022-12-24T09:57:00;54.65;;;13.63;;
75320;SDS011;63920;52.130;5.584;2022-12-24T09:59:37;45.08;;;11.07;;
75320;SDS011;63920;52.130;5.584;2022-12-24T10:02:09;45.00;;;10.25;;
75320;SDS011;63920;52.130;5.584;2022-12-24T10:04:37;56.08;;;10.63;;
75320;SDS011;63920;52.130;5.584;2022-12-24T10:07:10;41.22;;;9.65;;
75320;SDS011;63920;52.130;5.584;2022-12-24T10:12:33;49.05;;;10.02;;
75320;SDS011;63920;52.130;5.584;2022-12-24T10:26:17;41.55;;;9.20;;
75320;SDS011;63920;52.130;5.584;2022-12-24T10:28:57;39.70;;;9.05;;
75320;SDS011;63920;52.130;5.584;2022-12-24T10:31:40;47.55;;;8.75;;
75320;SDS011;63920;52.130;5.584;2022-12-24T10:34:27;50.05;;;8.93;;
75320;SDS011;63920;52.130;5.584;2022-12-24T10:36:55;52.10;;;8.88;;
75320;SDS011;63920;52.130;5.584;2022-12-24T10:39:23;40.42;;;8.25;;
75320;SDS011;63920;52.130;5.584;2022-12-24T10:41:51;43.33;;;11.35;;
75320;SDS011;63920;52.130;5.584;2022-12-24T10:44:22;48.25;;;8.93;;
75320;SDS011;63920;52.130;5.584;2022-12-24T10:46:56;46.78;;;9.00;;
75320;SDS011;63920;52.130;5.584;2022-12-24T10:52:11;43.60;;;11.43;;
75320;SDS011;63920;52.130;5.584;2022-12-24T10:57:28;42.92;;;8.55;;
75320;SDS011;63920;52.130;5.584;2022-12-24T10:59:54;51.63;;;9.98;;
75320;SDS011;63920;52.130;5.584;2022-12-24T11:04:59;52.22;;;16.70;;
75320;SDS011;63920;52.130;5.584;2022-12-24T11:07:26;40.65;;;9.88;;
75320;SDS011;63920;52.130;5.584;2022-12-24T11:12:24;41.03;;;8.13;;
75320;SDS011;63920;52.130;5.584;2022-12-24T11:15:06;45.97;;;8.70;;
75320;SDS011;63920;52.130;5.584;2022-12-24T11:17:41;44.72;;;8.30;;
75320;SDS011;63920;52.130;5.584;2022-12-24T11:20:16;44.42;;;8.65;;
75320;SDS011;63920;52.130;5.584;2022-12-24T11:22:47;46.35;;;7.82;;
75320;SDS011;63920;52.130;5.584;2022-12-24T11:25:21;33.67;;;6.90;;
75320;SDS011;63920;52.130;5.584;2022-12-24T11:27:51;32.15;;;6.88;;
75320;SDS011;63920;52.130;5.584;2022-12-24T11:30:20;90.40;;;38.03;;
75320;SDS011;63920;52.130;5.584;2022-12-24T11:32:48;46.20;;;9.05;;
75320;SDS011;63920;52.130;5.584;2022-12-24T11:35:38;44.55;;;7.45;;
75320;SDS011;63920;52.130;5.584;2022-12-24T11:38:10;29.55;;;6.85;;
75320;SDS011;63920;52.130;5.584;2022-12-24T11:40:41;34.95;;;6.40;;
75320;SDS011;63920;52.130;5.584;2022-12-24T11:43:16;37.10;;;6.45;;
75320;SDS011;63920;52.130;5.584;2022-12-24T11:45:51;41.35;;;5.82;;
75320;SDS011;63920;52.130;5.584;2022-12-24T11:48:32;31.60;;;6.72;;
75320;SDS011;63920;52.130;5.584;2022-12-24T11:51:02;26.95;;;5.03;;
75320;SDS011;63920;52.130;5.584;2022-12-24T11:56:37;42.28;;;7.10;;
75320;SDS011;63920;52.130;5.584;2022-12-24T12:02:05;24.52;;;5.60;;
75320;SDS011;63920;52.130;5.584;2022-12-24T12:04:40;32.90;;;6.28;;
75320;SDS011;63920;52.130;5.584;2022-12-24T12:07:24;26.70;;;5.97;;
75320;SDS011;63920;52.130;5.584;2022-12-24T12:09:58;26.08;;;6.10;;
75320;SDS011;63920;52.130;5.584;2022-12-24T12:12:33;34.38;;;8.00;;
75320;SDS011;63920;52.130;5.584;2022-12-24T12:15:05;31.67;;;9.60;;
75320;SDS011;63920;52.130;5.584;2022-12-24T12:17:51;24.73;;;6.57;;
75320;SDS011;63920;52.130;5.584;2022-12-24T12:20:24;27.05;;;5.40;;
75320;SDS011;63920;52.130;5.584;2022-12-24T12:25:54;26.55;;;6.45;;
75320;SDS011;63920;52.130;5.584;2022-12-24T12:28:46;29.27;;;7.68;;
75320;SDS011;63920;52.130;5.584;2022-12-24T12:31:51;28.52;;;7.55;;
75320;SDS011;63920;52.130;5.584;2022-12-24T12:34:28;20.85;;;5.80;;
75320;SDS011;63920;52.130;5.584;2022-12-24T12:37:11;31.55;;;5.82;;
75320;SDS011;63920;52.130;5.584;2022-12-24T12:39:40;29.35;;;7.60;;
75320;SDS011;63920;52.130;5.584;2022-12-24T12:42:12;34.45;;;7.55;;
75320;SDS011;63920;52.130;5.584;2022-12-24T12:44:56;34.90;;;11.70;;
75320;SDS011;63920;52.130;5.584;2022-12-24T12:47:38;27.75;;;6.65;;
75320;SDS011;63920;52.130;5.584;2022-12-24T13:01:19;29.95;;;8.70;;
75320;SDS011;63920;52.130;5.584;2022-12-24T13:06:44;26.63;;;6.68;;
75320;SDS011;63920;52.130;5.584;2022-12-24T13:15:09;27.80;;;5.63;;
75320;SDS011;63920;52.130;5.584;2022-12-24T13:20:45;27.02;;;6.60;;
75320;SDS011;63920;52.130;5.584;2022-12-24T13:23:20;21.75;;;5.75;;
75320;SDS011;63920;52.130;5.584;2022-12-24T13:25:50;37.35;;;6.07;;
75320;SDS011;63920;52.130;5.584;2022-12-24T13:30:50;28.58;;;6.85;;
75320;SDS011;63920;52.130;5.584;2022-12-24T13:38:30;26.67;;;5.68;;
75320;SDS011;63920;52.130;5.584;2022-12-24T13:49:47;29.75;;;6.18;;
75320;SDS011;63920;52.130;5.584;2022-12-24T13:52:12;33.28;;;6.30;;
75320;SDS011;63920;52.130;5.584;2022-12-24T13:57:40;27.35;;;5.68;;
75320;SDS011;63920;52.130;5.584;2022-12-24T14:03:03;25.80;;;5.53;;
75320;SDS011;63920;52.130;5.584;2022-12-24T14:05:51;30.00;;;5.43;;
75320;SDS011;63920;52.130;5.584;2022-12-24T14:08:31;19.92;;;5.05;;
75320;SDS011;63920;52.130;5.584;2022-12-24T14:21:41;23.50;;;5.18;;
75320;SDS011;63920;52.130;5.584;2022-12-24T14:24:24;27.63;;;5.32;;
75320;SDS011;63920;52.130;5.584;2022-12-24T14:26:54;29.80;;;6.13;;
75320;SDS011;63920;52.130;5.584;2022-12-24T14:29:27;33.35;;;6.93;;
75320;SDS011;63920;52.130;5.584;2022-12-24T14:31:54;31.05;;;6.32;;
75320;SDS011;63920;52.130;5.584;2022-12-24T14:34:22;32.90;;;5.78;;
75320;SDS011;63920;52.130;5.584;2022-12-24T14:36:48;30.73;;;6.82;;
75320;SDS011;63920;52.130;5.584;2022-12-24T14:39:21;29.42;;;6.10;;
75320;SDS011;63920;52.130;5.584;2022-12-24T14:56:26;42.90;;;12.32;;
75320;SDS011;63920;52.130;5.584;2022-12-24T14:58:52;93.70;;;54.53;;
75320;SDS011;63920;52.130;5.584;2022-12-24T15:01:21;84.72;;;50.28;;
75320;SDS011;63920;52.130;5.584;2022-12-24T15:03:58;29.88;;;7.63;;
75320;SDS011;63920;52.130;5.584;2022-12-24T15:06:26;35.92;;;10.65;;
75320;SDS011;63920;52.130;5.584;2022-12-24T15:08:53;29.38;;;6.65;;
75320;SDS011;63920;52.130;5.584;2022-12-24T15:11:19;39.50;;;7.00;;
75320;SDS011;63920;52.130;5.584;2022-12-24T15:13:47;34.22;;;8.68;;
75320;SDS011;63920;52.130;5.584;2022-12-24T15:16:18;40.03;;;14.70;;
75320;SDS011;63920;52.130;5.584;2022-12-24T15:18:48;42.65;;;18.85;;
75320;SDS011;63920;52.130;5.584;2022-12-24T15:21:27;30.40;;;10.77;;
75320;SDS011;63920;52.130;5.584;2022-12-24T15:23:55;49.33;;;16.52;;
75320;SDS011;63920;52.130;5.584;2022-12-24T15:28:55;33.28;;;9.52;;
75320;SDS011;63920;52.130;5.584;2022-12-24T15:31:23;31.02;;;7.88;;
75320;SDS011;63920;52.130;5.584;2022-12-24T15:33:51;48.85;;;10.25;;
75320;SDS011;63920;52.130;5.584;2022-12-24T15:36:34;45.17;;;7.63;;
75320;SDS011;63920;52.130;5.584;2022-12-24T15:39:12;25.85;;;7.22;;
75320;SDS011;63920;52.130;5.584;2022-12-24T15:41:41;39.05;;;8.43;;
75320;SDS011;63920;52.130;5.584;2022-12-24T15:44:27;28.30;;;7.45;;
75320;SDS011;63920;52.130;5.584;2022-12-24T15:46:58;35.20;;;8.18;;
75320;SDS011;63920;52.130;5.584;2022-12-24T15:49:26;36.85;;;6.53;;
75320;SDS011;63920;52.130;5.584;2022-12-24T15:51:53;29.60;;;9.13;;
75320;SDS011;63920;52.130;5.584;2022-12-24T15:54:27;42.05;;;8.65;;
75320;SDS011;63920;52.130;5.584;2022-12-24T15:56:53;49.45;;;9.52;;
75320;SDS011;63920;52.130;5.584;2022-12-24T15:59:37;30.75;;;9.65;;
75320;SDS011;63920;52.130;5.584;2022-12-24T16:08:05;38.08;;;8.88;;
75320;SDS011;63920;52.130;5.584;2022-12-24T16:10:31;36.92;;;7.80;;
75320;SDS011;63920;52.130;5.584;2022-12-24T16:12:57;42.65;;;7.50;;
75320;SDS011;63920;52.130;5.584;2022-12-24T16:15:24;39.67;;;9.18;;
75320;SDS011;63920;52.130;5.584;2022-12-24T16:17:50;39.53;;;8.75;;
75320;SDS011;63920;52.130;5.584;2022-12-24T16:20:19;35.38;;;8.52;;
75320;SDS011;63920;52.130;5.584;2022-12-24T16:22:46;26.83;;;7.90;;
75320;SDS011;63920;52.130;5.584;2022-12-24T16:27:41;27.50;;;7.32;;
75320;SDS011;63920;52.130;5.584;2022-12-24T16:30:08;40.28;;;8.25;;
75320;SDS011;63920;52.130;5.584;2022-12-24T16:32:35;33.55;;;10.00;;
75320;SDS011;63920;52.130;5.584;2022-12-24T16:35:04;37.50;;;9.50;;
75320;SDS011;63920;52.130;5.584;2022-12-24T16:37:31;37.95;;;8.60;;
75320;SDS011;63920;52.130;5.584;2022-12-24T16:39:57;38.83;;;6.78;;
75320;SDS011;63920;52.130;5.584;2022-12-24T16:42:24;33.70;;;7.80;;
75320;SDS011;63920;52.130;5.584;2022-12-24T16:45:08;31.55;;;7.18;;
75320;SDS011;63920;52.130;5.584;2022-12-24T16:47:34;36.38;;;13.00;;
75320;SDS011;63920;52.130;5.584;2022-12-24T16:50:04;54.60;;;18.75;;
75320;SDS011;63920;52.130;5.584;2022-12-24T16:52:31;34.67;;;7.82;;
75320;SDS011;63920;52.130;5.584;2022-12-24T16:54:57;35.28;;;7.97;;
75320;SDS011;63920;52.130;5.584;2022-12-24T16:57:24;36.83;;;7.88;;
75320;SDS011;63920;52.130;5.584;2022-12-24T16:59:50;32.28;;;8.35;;
75320;SDS011;63920;52.130;5.584;2022-12-24T17:02:17;31.10;;;8.23;;